createdAt,value
2022-11-28T00:01:29.478Z,100089.75
2022-11-28T00:03:56.646Z,100072.19
2022-11-28T00:06:24.479Z,100082.47
2022-11-28T00:08:52.111Z,100086.38
2022-11-28T00:11:19.920Z,100080.22
2022-11-28T00:13:50.383Z,100075.31
2022-11-28T00:16:24.034Z,100063.03
2022-11-28T00:18:54.913Z,100074.69
2022-11-28T00:21:22.794Z,100077.72
2022-11-28T00:23:50.198Z,100073.88
2022-11-28T00:26:20.818Z,100074.31
2022-11-28T00:28:48.355Z,100081.59
2022-11-28T00:31:18.106Z,100091.94
2022-11-28T00:33:46.140Z,100089.38
2022-11-28T00:36:13.682Z,100089.59
2022-11-28T00:38:41.343Z,100083.88
2022-11-28T00:41:20.133Z,100080.47
2022-11-28T00:43:49.005Z,100086.91
2022-11-28T00:46:18.224Z,100078.41
2022-11-28T00:48:45.485Z,100083.94
2022-11-28T00:51:24.017Z,100084.00
2022-11-28T00:53:53.014Z,100084.09
2022-11-28T00:56:23.771Z,100070.41
2022-11-28T00:58:51.792Z,100074.13
2022-11-28T01:01:22.927Z,100076.22
2022-11-28T01:03:52.853Z,100065.53
2022-11-28T01:06:28.764Z,100078.84
2022-11-28T01:08:56.404Z,100074.28
2022-11-28T01:11:24.834Z,100069.75
2022-11-28T01:13:56.799Z,100068.81
2022-11-28T01:16:24.280Z,100059.03
2022-11-28T01:18:52.408Z,100066.38
2022-11-28T01:21:20.855Z,100065.78
2022-11-28T01:23:49.336Z,100061.38
2022-11-28T01:26:19.914Z,100053.78
2022-11-28T01:28:47.572Z,100065.41
2022-11-28T01:31:17.739Z,100060.75
2022-11-28T01:33:45.281Z,100061.31
2022-11-28T01:36:13.943Z,100055.06
2022-11-28T01:38:41.570Z,100051.44
2022-11-28T01:41:09.653Z,100055.69
2022-11-28T01:43:37.401Z,100036.28
2022-11-28T01:46:05.678Z,100048.31
2022-11-28T01:48:39.643Z,100050.44
2022-11-28T01:51:09.429Z,100036.47
2022-11-28T01:53:41.104Z,100046.91
2022-11-28T01:56:18.073Z,100039.94
2022-11-28T01:58:50.700Z,100033.03
2022-11-28T02:01:19.212Z,100037.75
2022-11-28T02:03:50.133Z,100033.88
2022-11-28T02:06:23.045Z,100048.50
2022-11-28T02:08:54.613Z,100044.56
2022-11-28T02:11:54.014Z,100041.78
2022-11-28T02:14:43.629Z,100041.81
2022-11-28T02:17:42.746Z,100043.09
2022-11-28T02:20:15.798Z,100045.47
2022-11-28T02:22:57.798Z,100043.72
2022-11-28T02:25:36.696Z,100035.06
2022-11-28T02:28:38.935Z,100034.09
2022-11-28T02:31:20.291Z,100026.22
2022-11-28T02:34:00.893Z,100025.25
2022-11-28T02:36:34.543Z,100019.38
2022-11-28T02:39:14.362Z,100014.84
2022-11-28T02:41:52.961Z,100012.59
2022-11-28T02:44:45.915Z,100015.66
2022-11-28T02:47:42.795Z,100016.03
2022-11-28T02:50:17.448Z,100005.00
2022-11-28T02:52:53.422Z,100007.28
2022-11-28T02:55:22.562Z,99995.53
2022-11-28T02:57:52.953Z,99999.94
2022-11-28T03:00:25.933Z,100002.00
2022-11-28T03:03:14.763Z,100001.63
2022-11-28T03:05:42.304Z,100007.22
2022-11-28T03:08:13.765Z,99996.94
2022-11-28T03:11:06.050Z,99999.66
2022-11-28T03:13:53.582Z,100004.13
2022-11-28T03:16:39.533Z,100008.09
2022-11-28T03:19:15.325Z,99998.34
2022-11-28T03:22:20.683Z,99990.97
2022-11-28T03:24:56.017Z,99990.97
2022-11-28T03:27:34.858Z,99986.56
2022-11-28T03:30:17.975Z,99980.78
2022-11-28T03:32:50.715Z,99988.44
2022-11-28T03:35:22.185Z,99978.44
2022-11-28T03:37:55.098Z,99978.53
2022-11-28T03:40:31.201Z,99971.59
2022-11-28T03:43:04.194Z,99965.88
2022-11-28T03:45:40.173Z,99966.97
2022-11-28T03:48:20.233Z,99959.28
2022-11-28T03:50:52.043Z,99957.72
2022-11-28T03:53:27.263Z,99964.09
2022-11-28T03:55:57.069Z,99973.59
2022-11-28T03:58:44.034Z,99965.34
2022-11-28T04:01:35.066Z,99962.50
2022-11-28T04:04:23.313Z,99956.13
2022-11-28T04:06:58.580Z,99962.41
2022-11-28T04:09:40.502Z,99957.78
2022-11-28T04:12:18.912Z,99955.66
2022-11-28T04:14:54.452Z,99965.13
2022-11-28T04:17:35.785Z,99968.03
2022-11-28T04:20:14.565Z,99975.97
2022-11-28T04:22:50.704Z,99967.13
2022-11-28T04:25:22.349Z,99975.31
2022-11-28T04:27:55.313Z,99970.41
2022-11-28T04:30:22.742Z,99960.03
2022-11-28T04:32:56.141Z,99967.03
2022-11-28T04:35:34.683Z,99967.19
2022-11-28T04:38:04.646Z,99972.84
2022-11-28T04:40:35.676Z,99964.19
2022-11-28T04:43:11.193Z,99965.66
2022-11-28T04:45:49.698Z,99966.22
2022-11-28T04:48:18.377Z,99963.88
2022-11-28T04:50:59.008Z,99959.69
2022-11-28T04:53:35.975Z,99960.59
2022-11-28T04:56:13.738Z,99964.78
2022-11-28T04:58:45.553Z,99971.91
2022-11-28T05:01:18.610Z,99972.69
2022-11-28T05:03:46.504Z,99977.06
2022-11-28T05:06:27.205Z,99973.22
2022-11-28T05:08:54.254Z,99973.16
2022-11-28T05:11:21.303Z,99969.69
2022-11-28T05:13:48.845Z,99961.47
2022-11-28T05:16:17.159Z,99971.91
2022-11-28T05:18:44.625Z,99967.78
2022-11-28T05:21:12.433Z,99959.84
2022-11-28T05:23:44.325Z,99967.28
2022-11-28T05:26:14.443Z,99963.88
2022-11-28T05:28:45.635Z,99956.13
2022-11-28T05:31:13.515Z,99961.09
2022-11-28T05:33:40.563Z,99955.16
2022-11-28T05:36:13.086Z,99971.19
2022-11-28T05:38:41.212Z,99959.72
2022-11-28T05:41:08.593Z,99965.53
2022-11-28T05:43:37.665Z,99959.44
2022-11-28T05:46:06.995Z,99967.72
2022-11-28T05:48:34.483Z,99969.84
2022-11-28T05:51:06.384Z,99973.72
2022-11-28T05:53:34.303Z,99969.63
2022-11-28T05:56:10.591Z,99959.41
2022-11-28T05:58:38.066Z,99963.97
2022-11-28T06:01:22.388Z,99959.84
2022-11-28T06:03:50.021Z,99960.22
2022-11-28T06:06:21.911Z,99948.56
2022-11-28T06:08:52.061Z,99948.97
2022-11-28T06:11:33.592Z,99949.78
2022-11-28T06:14:08.907Z,99952.75
2022-11-28T06:16:36.091Z,99961.97
2022-11-28T06:19:06.355Z,99952.28
2022-11-28T06:21:34.474Z,99949.94
2022-11-28T06:24:03.862Z,99951.56
2022-11-28T06:26:31.016Z,99960.00
2022-11-28T06:29:00.291Z,99945.31
2022-11-28T06:31:31.061Z,99946.22
2022-11-28T06:33:58.908Z,99949.66
2022-11-28T06:36:26.922Z,99946.22
2022-11-28T06:38:54.847Z,99943.09
2022-11-28T06:41:23.274Z,99954.28
2022-11-28T06:43:50.636Z,99956.56
2022-11-28T06:46:19.987Z,99945.53
2022-11-28T06:48:48.594Z,99941.72
2022-11-28T06:51:16.769Z,99952.22
2022-11-28T06:53:44.188Z,99948.41
2022-11-28T06:56:17.314Z,99944.66
2022-11-28T06:58:45.367Z,99946.22
2022-11-28T07:01:19.059Z,99946.34
2022-11-28T07:03:47.323Z,99945.19
2022-11-28T07:06:16.647Z,99947.44
2022-11-28T07:08:44.284Z,99941.94
2022-11-28T07:11:23.892Z,99956.34
2022-11-28T07:13:51.594Z,99946.63
2022-11-28T07:16:28.702Z,99945.00
2022-11-28T07:18:59.278Z,99940.00
2022-11-28T07:21:28.813Z,99944.84
2022-11-28T07:23:55.861Z,99936.13
2022-11-28T07:26:23.197Z,99944.13
2022-11-28T07:28:52.684Z,99947.06
2022-11-28T07:31:22.472Z,99935.94
2022-11-28T07:33:51.533Z,99929.28
2022-11-28T07:36:27.789Z,99926.63
2022-11-28T07:41:26.942Z,99930.34
2022-11-28T07:43:59.842Z,99924.84
2022-11-28T07:46:28.286Z,99934.69
2022-11-28T07:48:55.943Z,99929.28
2022-11-28T07:51:28.738Z,99925.56
2022-11-28T07:53:56.208Z,99926.09
2022-11-28T07:56:31.955Z,99926.13
2022-11-28T07:59:07.671Z,99923.03
2022-11-28T08:01:36.198Z,99925.19
2022-11-28T08:04:06.853Z,99919.47
2022-11-28T08:06:38.401Z,99914.97
2022-11-28T08:09:07.112Z,99914.81
2022-11-28T08:11:34.643Z,99911.97
2022-11-28T08:14:02.130Z,99916.69
2022-11-28T08:16:30.362Z,99908.19
2022-11-28T08:19:00.254Z,99910.94
2022-11-28T08:21:30.095Z,99903.47
2022-11-28T08:24:00.318Z,99908.28
2022-11-28T08:26:30.670Z,99915.28
2022-11-28T08:29:02.933Z,99902.34
2022-11-28T08:31:38.507Z,99911.69
2022-11-28T08:34:11.165Z,99915.09
2022-11-28T08:36:38.426Z,99902.53
2022-11-28T08:42:00.623Z,99906.69
2022-11-28T08:44:31.808Z,99906.31
2022-11-28T08:47:06.325Z,99897.50
2022-11-28T08:49:33.480Z,99906.13
2022-11-28T08:52:00.482Z,99905.38
2022-11-28T08:54:27.586Z,99893.66
2022-11-28T08:56:54.860Z,99896.78
2022-11-28T08:59:21.811Z,99893.88
2022-11-28T09:01:48.722Z,99913.28
2022-11-28T09:04:15.664Z,99887.28
2022-11-28T09:06:42.758Z,99888.66
2022-11-28T09:09:10.162Z,99883.63
2022-11-28T09:11:37.752Z,99890.53
2022-11-28T09:14:04.845Z,99887.31
2022-11-28T09:16:31.870Z,99875.56
2022-11-28T09:18:59.590Z,99872.91
2022-11-28T09:21:27.161Z,99868.13
2022-11-28T09:23:56.214Z,99877.44
2022-11-28T09:26:25.366Z,99881.72
2022-11-28T09:28:54.410Z,99875.97
2022-11-28T09:31:22.131Z,99870.38
2022-11-28T09:33:51.852Z,99870.69
2022-11-28T09:36:21.133Z,99870.72
2022-11-28T09:38:48.381Z,99867.53
2022-11-28T09:41:52.745Z,99867.31
2022-11-28T09:44:37.369Z,99862.03
2022-11-28T09:47:12.063Z,99875.03
2022-11-28T09:49:49.530Z,99866.19
2022-11-28T09:53:24.309Z,99873.56
2022-11-28T09:55:56.534Z,99869.75
2022-11-28T09:58:47.965Z,99862.16
2022-11-28T10:01:48.441Z,99875.50
2022-11-28T10:05:07.734Z,99878.84
2022-11-28T10:07:59.686Z,99870.09
2022-11-28T10:10:42.703Z,99874.63
2022-11-28T10:13:21.725Z,99851.59
2022-11-28T10:15:55.959Z,99863.28
2022-11-28T10:18:38.521Z,99863.47
2022-11-28T10:23:45.836Z,99856.34
2022-11-28T10:26:36.237Z,99850.41
2022-11-28T10:29:33.990Z,99850.88
2022-11-28T10:32:05.128Z,99843.19
2022-11-28T10:35:09.662Z,99859.25
2022-11-28T10:37:40.847Z,99851.50
2022-11-28T10:40:29.417Z,99851.31
2022-11-28T10:43:04.719Z,99847.78
2022-11-28T10:46:07.254Z,99849.75
2022-11-28T10:49:02.507Z,99843.38
2022-11-28T10:51:54.583Z,99837.78
2022-11-28T10:55:03.752Z,99843.91
2022-11-28T10:58:20.094Z,99836.44
2022-11-28T11:00:50.186Z,99821.72
2022-11-28T11:03:29.834Z,99833.22
2022-11-28T11:06:00.165Z,99834.47
2022-11-28T11:08:38.196Z,99828.84
2022-11-28T11:11:31.568Z,99831.81
2022-11-28T11:14:11.354Z,99830.88
2022-11-28T11:17:24.945Z,99834.41
2022-11-28T11:22:32.727Z,99822.41
2022-11-28T11:25:16.097Z,99831.53
2022-11-28T11:27:57.493Z,99824.84
2022-11-28T11:30:40.708Z,99808.31
2022-11-28T11:33:16.221Z,99822.59
2022-11-28T11:35:48.095Z,99814.84
2022-11-28T11:38:33.503Z,99802.91
2022-11-28T11:41:44.105Z,99813.69
2022-11-28T11:44:29.605Z,99812.00
2022-11-28T11:47:06.100Z,99807.94
2022-11-28T11:49:48.351Z,99798.94
2022-11-28T11:52:23.749Z,99797.91
2022-11-28T11:55:16.947Z,99794.41
2022-11-28T11:57:56.009Z,99795.03
2022-11-28T12:00:43.173Z,99790.25
2022-11-28T12:03:27.338Z,99793.44
2022-11-28T12:06:16.832Z,99786.06
2022-11-28T12:17:25.633Z,99773.59
2022-11-28T12:25:57.465Z,99770.38
2022-11-28T12:28:52.303Z,99768.63
2022-11-28T12:31:37.184Z,99748.16
2022-11-28T12:34:22.312Z,99769.69
2022-11-28T12:37:16.646Z,99760.50
2022-11-28T12:39:52.749Z,99764.53
2022-11-28T12:42:51.010Z,99759.00
2022-11-28T12:45:31.869Z,99760.59
2022-11-28T12:48:52.911Z,99763.59
2022-11-28T12:51:43.109Z,99755.84
2022-11-28T12:54:51.234Z,99766.13
2022-11-28T12:57:27.327Z,99761.59
2022-11-28T13:00:10.191Z,99760.50
2022-11-28T13:03:22.912Z,99754.34
2022-11-28T13:06:30.767Z,99761.19
2022-11-28T13:09:11.074Z,99754.16
2022-11-28T13:11:52.670Z,99754.22
2022-11-28T13:14:57.693Z,99757.09
2022-11-28T13:17:43.174Z,99760.88
2022-11-28T13:20:25.375Z,99737.28
2022-11-28T13:22:59.257Z,99727.63
2022-11-28T13:28:20.244Z,99752.69
2022-11-28T13:30:56.408Z,99742.09
2022-11-28T13:33:56.309Z,99732.47
2022-11-28T13:39:47.595Z,99759.84
2022-11-28T13:45:43.501Z,99743.06
2022-11-28T13:51:34.094Z,99740.56
2022-11-28T13:54:21.873Z,99750.84
2022-11-28T13:57:21.760Z,99759.34
2022-11-28T13:59:59.457Z,99733.88
2022-11-28T14:02:42.411Z,99749.22
2022-11-28T14:05:26.818Z,99743.63
2022-11-28T14:07:56.087Z,99751.09
2022-11-28T14:10:38.466Z,99757.88
2022-11-28T14:13:09.756Z,99762.50
2022-11-28T14:16:08.233Z,99760.94
2022-11-28T14:19:13.004Z,99751.25
2022-11-28T14:22:09.117Z,99755.97
2022-11-28T14:24:54.166Z,99758.69
2022-11-28T14:27:31.155Z,99735.72
2022-11-28T14:30:00.339Z,99737.75
2022-11-28T14:32:42.700Z,99745.19
2022-11-28T14:38:31.093Z,99764.41
2022-11-28T14:41:08.358Z,99763.34
2022-11-28T14:43:38.703Z,99755.56
2022-11-28T14:46:26.003Z,99754.63
2022-11-28T14:48:59.389Z,99754.34
2022-11-28T14:51:48.932Z,99765.25
2022-11-28T14:54:38.544Z,99755.41
2022-11-28T14:57:22.048Z,99767.63
2022-11-28T15:00:00.213Z,99760.94
2022-11-28T15:03:05.145Z,99764.50
2022-11-28T15:05:51.156Z,99758.09
2022-11-28T15:08:39.959Z,99753.50
2022-11-28T15:11:28.831Z,99764.44
2022-11-28T15:14:06.099Z,99756.53
2022-11-28T15:16:46.582Z,99757.19
2022-11-28T15:20:01.928Z,99757.88
2022-11-28T15:22:41.701Z,99753.31
2022-11-28T15:25:29.912Z,99755.47
2022-11-28T15:28:43.371Z,99757.72
2022-11-28T15:31:22.132Z,99748.25
2022-11-28T15:33:52.222Z,99765.03
2022-11-28T15:36:28.783Z,99771.25
2022-11-28T15:39:00.061Z,99763.38
2022-11-28T15:41:28.477Z,99762.88
2022-11-28T15:43:56.642Z,99754.09
2022-11-28T15:46:36.785Z,99755.66
2022-11-28T15:49:05.515Z,99756.34
2022-11-28T15:51:36.624Z,99737.75
2022-11-28T15:54:22.318Z,99757.59
2022-11-28T15:57:03.048Z,99750.81
2022-11-28T15:59:31.864Z,99735.66
2022-11-28T16:02:13.414Z,99732.03
2022-11-28T16:04:45.215Z,99750.63
2022-11-28T16:07:16.219Z,99740.91
2022-11-28T16:10:05.906Z,99744.09
2022-11-28T16:12:33.592Z,99746.97
2022-11-28T16:15:05.074Z,99739.72
2022-11-28T16:17:34.044Z,99749.38
2022-11-28T16:20:04.033Z,99739.03
2022-11-28T16:22:38.083Z,99740.47
2022-11-28T16:25:22.545Z,99740.22
2022-11-28T16:27:53.453Z,99746.75
2022-11-28T16:30:23.996Z,99748.41
2022-11-28T16:32:54.102Z,99746.63
2022-11-28T16:35:29.178Z,99738.66
2022-11-28T16:38:24.834Z,99741.53
2022-11-28T16:40:59.468Z,99736.28
2022-11-28T16:43:43.454Z,99746.66
2022-11-28T16:46:22.163Z,99751.06
2022-11-28T16:48:55.584Z,99750.28
2022-11-28T16:51:23.463Z,99743.00
2022-11-28T16:54:02.816Z,99750.06
2022-11-28T16:56:33.022Z,99738.84
2022-11-28T16:59:15.351Z,99753.28
2022-11-28T17:01:47.145Z,99738.25
2022-11-28T17:04:28.942Z,99746.50
2022-11-28T17:07:05.498Z,99738.84
2022-11-28T17:09:34.151Z,99733.47
2022-11-28T17:12:07.211Z,99739.16
2022-11-28T17:14:34.901Z,99740.78
2022-11-28T17:17:02.327Z,99741.03
2022-11-28T17:19:40.498Z,99738.69
2022-11-28T17:22:13.680Z,99740.50
2022-11-28T17:24:42.459Z,99732.88
2022-11-28T17:27:14.048Z,99725.53
2022-11-28T17:29:42.942Z,99734.19
2022-11-28T17:32:14.450Z,99723.56
2022-11-28T17:37:24.092Z,99719.22
2022-11-28T17:40:12.405Z,99706.63
2022-11-28T17:42:39.612Z,99710.41
2022-11-28T17:45:15.407Z,99722.53
2022-11-28T17:47:42.761Z,99724.41
2022-11-28T17:50:11.638Z,99713.03
2022-11-28T17:52:41.348Z,99724.22
2022-11-28T17:55:09.638Z,99721.63
2022-11-28T17:57:37.108Z,99718.25
2022-11-28T18:00:09.152Z,99722.81
2022-11-28T18:02:37.916Z,99715.59
2022-11-28T18:05:05.470Z,99717.59
2022-11-28T18:07:33.221Z,99717.78
2022-11-28T18:10:00.560Z,99708.13
2022-11-28T18:12:27.524Z,99707.44
2022-11-28T18:14:54.539Z,99703.09
2022-11-28T18:17:23.278Z,99693.72
2022-11-28T18:31:13.029Z,99687.16
2022-11-28T18:33:41.515Z,99682.59
2022-11-28T18:36:15.299Z,99680.75
2022-11-28T18:38:49.985Z,99678.19
2022-11-28T18:41:19.568Z,99693.78
2022-11-28T18:43:49.749Z,99689.56
2022-11-28T18:46:21.920Z,99688.31
2022-11-28T18:48:49.285Z,99691.66
2022-11-28T18:51:19.449Z,99683.13
2022-11-28T18:53:51.160Z,99699.28
2022-11-28T18:56:19.255Z,99692.16
2022-11-28T18:58:54.651Z,99690.31
2022-11-28T19:01:38.134Z,99691.94
2022-11-28T19:04:14.061Z,99687.00
2022-11-28T19:10:33.143Z,99676.16
2022-11-28T19:13:32.719Z,99683.53
2022-11-28T19:16:28.814Z,99678.72
2022-11-28T19:19:15.749Z,99682.41
2022-11-28T19:21:43.746Z,99671.13
2022-11-28T19:24:13.812Z,99687.66
2022-11-28T19:26:40.732Z,99705.16
2022-11-28T19:29:09.239Z,99706.63
2022-11-28T19:31:45.020Z,99692.63
2022-11-28T19:34:18.769Z,99706.69
2022-11-28T19:36:48.168Z,99700.81
2022-11-28T19:39:18.052Z,99683.09
2022-11-28T19:41:45.705Z,99694.38
2022-11-28T19:44:13.578Z,99705.31
2022-11-28T19:46:41.567Z,99686.41
2022-11-28T19:49:12.076Z,99678.41
2022-11-28T19:51:40.400Z,99677.25
2022-11-28T19:54:07.366Z,99681.41
2022-11-28T19:56:35.523Z,99671.25
2022-11-28T19:59:02.684Z,99682.03
2022-11-28T20:01:31.309Z,99676.94
2022-11-28T20:04:00.142Z,99674.97
2022-11-28T20:06:30.448Z,99679.22
2022-11-28T20:09:01.411Z,99670.16
2022-11-28T20:11:33.817Z,99674.22
2022-11-28T20:14:14.387Z,99666.59
2022-11-28T20:16:41.457Z,99667.66
2022-11-28T20:19:11.351Z,99661.97
2022-11-28T20:21:39.108Z,99665.59
2022-11-28T20:24:08.472Z,99669.69
2022-11-28T20:26:42.029Z,99673.66
2022-11-28T20:29:13.050Z,99671.94
2022-11-28T20:31:46.892Z,99675.66
2022-11-28T20:34:15.269Z,99665.03
2022-11-28T20:36:42.491Z,99662.59
2022-11-28T20:39:11.821Z,99664.75
2022-11-28T20:41:38.943Z,99655.56
2022-11-28T20:44:06.380Z,99661.97
2022-11-28T20:46:35.933Z,99661.06
2022-11-28T20:49:05.814Z,99659.72
2022-11-28T20:51:34.815Z,99661.03
2022-11-28T20:54:05.158Z,99660.66
2022-11-28T20:56:51.930Z,99662.94
2022-11-28T20:59:25.214Z,99654.69
2022-11-28T21:01:52.257Z,99651.56
2022-11-28T21:04:19.747Z,99648.00
2022-11-28T21:06:48.148Z,99658.94
2022-11-28T21:10:09.743Z,99657.78
2022-11-28T21:12:44.068Z,99655.88
2022-11-28T21:15:15.614Z,99649.56
2022-11-28T21:17:42.586Z,99661.72
2022-11-28T21:20:10.035Z,99657.75
2022-11-28T21:22:36.869Z,99652.94
2022-11-28T21:25:04.063Z,99653.41
2022-11-28T21:27:31.202Z,99653.13
2022-11-28T21:30:06.272Z,99639.63
2022-11-28T21:32:33.108Z,99644.91
2022-11-28T21:35:04.153Z,99641.97
2022-11-28T21:37:31.670Z,99643.63
2022-11-28T21:39:58.531Z,99643.16
2022-11-28T21:42:25.509Z,99647.91
2022-11-28T21:44:53.254Z,99644.66
2022-11-28T21:47:21.613Z,99645.31
2022-11-28T21:49:48.655Z,99645.94
2022-11-28T21:52:16.980Z,99652.56
2022-11-28T21:54:46.103Z,99646.00
2022-11-28T21:57:12.981Z,99642.94
2022-11-28T21:59:39.936Z,99648.16
2022-11-28T22:02:11.474Z,99646.44
2022-11-28T22:04:38.610Z,99649.72
2022-11-28T22:07:05.510Z,99647.56
2022-11-28T22:09:32.344Z,99654.56
2022-11-28T22:11:59.217Z,99644.06
2022-11-28T22:14:26.263Z,99647.81
2022-11-28T22:16:53.121Z,99652.91
2022-11-28T22:19:19.977Z,99650.16
2022-11-28T22:21:52.054Z,99651.97
2022-11-28T22:24:22.092Z,99658.09
2022-11-28T22:26:49.066Z,99659.25
2022-11-28T22:29:15.909Z,99652.97
2022-11-28T22:33:32.895Z,99647.47
2022-11-28T22:36:11.301Z,99659.03
2022-11-28T22:38:39.313Z,99660.75
2022-11-28T22:41:21.998Z,99647.19
2022-11-28T22:43:55.999Z,99638.94
2022-11-28T22:46:23.079Z,99641.75
2022-11-28T22:48:50.754Z,99630.13
2022-11-28T22:51:20.821Z,99621.94
2022-11-28T22:53:47.791Z,99625.03
2022-11-28T22:56:15.781Z,99624.38
2022-11-28T22:58:44.941Z,99621.00
2022-11-28T23:01:20.014Z,99630.50
2022-11-28T23:03:47.581Z,99630.06
2022-11-28T23:06:17.365Z,99632.09
2022-11-28T23:08:45.060Z,99617.91
2022-11-28T23:11:14.713Z,99611.19
2022-11-28T23:13:42.334Z,99614.84
2022-11-28T23:16:15.247Z,99613.28
2022-11-28T23:18:43.240Z,99613.97
2022-11-28T23:21:10.503Z,99621.81
2022-11-28T23:23:38.537Z,99611.09
2022-11-28T23:26:07.943Z,99611.09
2022-11-28T23:28:35.861Z,99608.06
2022-11-28T23:31:17.856Z,99625.03
2022-11-28T23:33:45.656Z,99608.88
2022-11-28T23:36:18.718Z,99609.44
2022-11-28T23:38:47.065Z,99612.00
2022-11-28T23:41:14.738Z,99609.69
2022-11-28T23:43:42.365Z,99601.78
2022-11-28T23:46:11.166Z,99599.69
2022-11-28T23:48:38.834Z,99607.84
2022-11-28T23:51:06.703Z,99613.28
2022-11-28T23:53:34.628Z,99603.63
2022-11-28T23:56:07.042Z,99603.75
2022-11-28T23:58:35.226Z,99601.03
